sensor_id;sensor_type;location;lat;lon;timestamp;pressure;altitude;pressure_sealevel;temperature;humidity
36258;BME280;22294;52.044;4.582;2023-03-15T00:02:17;77474.66;;;-144.37;100.00
36258;BME280;22294;52.044;4.582;2023-03-15T00:04:42;77472.63;;;-144.37;100.00
36258;BME280;22294;52.044;4.582;2023-03-15T00:07:08;77468.53;;;-144.37;100.00
36258;BME280;22294;52.044;4.582;2023-03-15T00:09:33;77468.53;;;-144.37;100.00
36258;BME280;22294;52.044;4.582;2023-03-15T00:11:58;77458.28;;;-144.37;100.00
36258;BME280;22294;52.044;4.582;2023-03-15T00:14:24;77448.06;;;-144.37;100.00
36258;BME280;22294;52.044;4.582;2023-03-15T00:16:49;77452.16;;;-144.37;100.00
36258;BME280;22294;52.044;4.582;2023-03-15T00:19:14;77443.97;;;-144.37;100.00
36258;BME280;22294;52.044;4.582;2023-03-15T00:21:40;77446.03;;;-144.37;100.00
36258;BME280;22294;52.044;4.582;2023-03-15T00:24:09;77450.13;;;-144.37;100.00
36258;BME280;22294;52.044;4.582;2023-03-15T00:26:35;77441.94;;;-144.37;100.00
36258;BME280;22294;52.044;4.582;2023-03-15T00:29:00;77452.16;;;-144.37;100.00
36258;BME280;22294;52.044;4.582;2023-03-15T00:31:25;77460.34;;;-144.37;100.00
36258;BME280;22294;52.044;4.582;2023-03-15T00:33:51;77478.75;;;-144.37;100.00
36258;BME280;22294;52.044;4.582;2023-03-15T00:36:20;77482.84;;;-144.37;100.00
36258;BME280;22294;52.044;4.582;2023-03-15T00:38:51;77489.00;;;-144.37;100.00
36258;BME280;22294;52.044;4.582;2023-03-15T00:41:18;77491.03;;;-144.37;100.00
36258;BME280;22294;52.044;4.582;2023-03-15T00:43:45;77499.22;;;-144.37;100.00
36258;BME280;22294;52.044;4.582;2023-03-15T00:46:11;77499.22;;;-144.37;100.00
36258;BME280;22294;52.044;4.582;2023-03-15T00:48:37;77509.44;;;-144.37;100.00
36258;BME280;22294;52.044;4.582;2023-03-15T00:51:16;77515.59;;;-144.37;100.00
36258;BME280;22294;52.044;4.582;2023-03-15T00:53:43;77509.44;;;-144.37;100.00
36258;BME280;22294;52.044;4.582;2023-03-15T00:56:11;77505.34;;;-144.37;100.00
36258;BME280;22294;52.044;4.582;2023-03-15T00:58:37;77509.44;;;-144.37;100.00
36258;BME280;22294;52.044;4.582;2023-03-15T01:01:12;77499.22;;;-144.37;100.00
36258;BME280;22294;52.044;4.582;2023-03-15T01:03:38;77499.22;;;-144.37;100.00
36258;BME280;22294;52.044;4.582;2023-03-15T01:06:10;77501.25;;;-144.37;100.00
36258;BME280;22294;52.044;4.582;2023-03-15T01:08:36;77501.25;;;-144.37;100.00
36258;BME280;22294;52.044;4.582;2023-03-15T01:11:04;77503.31;;;-144.37;100.00
36258;BME280;22294;52.044;4.582;2023-03-15T01:13:29;77515.59;;;-144.37;100.00
36258;BME280;22294;52.044;4.582;2023-03-15T01:15:55;77527.84;;;-144.37;100.00
36258;BME280;22294;52.044;4.582;2023-03-15T01:18:20;77534.00;;;-144.37;100.00
36258;BME280;22294;52.044;4.582;2023-03-15T01:20:46;77548.31;;;-144.37;100.00
36258;BME280;22294;52.044;4.582;2023-03-15T01:23:12;77558.53;;;-144.37;100.00
36258;BME280;22294;52.044;4.582;2023-03-15T01:25:37;77566.72;;;-144.37;100.00
36258;BME280;22294;52.044;4.582;2023-03-15T01:28:03;77570.81;;;-144.37;100.00
36258;BME280;22294;52.044;4.582;2023-03-15T01:30:28;77581.06;;;-144.37;100.00
36258;BME280;22294;52.044;4.582;2023-03-15T01:32:53;77591.28;;;-144.37;100.00
36258;BME280;22294;52.044;4.582;2023-03-15T01:35:19;77597.41;;;-144.37;100.00
36258;BME280;22294;52.044;4.582;2023-03-15T01:37:44;77601.50;;;-144.37;100.00
36258;BME280;22294;52.044;4.582;2023-03-15T01:40:12;77607.66;;;-144.37;100.00
36258;BME280;22294;52.044;4.582;2023-03-15T01:42:52;77609.69;;;-144.37;100.00
36258;BME280;22294;52.044;4.582;2023-03-15T01:48:23;77624.00;;;-144.37;100.00
36258;BME280;22294;52.044;4.582;2023-03-15T01:50:50;77630.16;;;-144.37;100.00
36258;BME280;22294;52.044;4.582;2023-03-15T01:53:19;77634.25;;;-144.37;100.00
36258;BME280;22294;52.044;4.582;2023-03-15T01:55:44;77632.19;;;-144.37;100.00
36258;BME280;22294;52.044;4.582;2023-03-15T01:58:10;77638.34;;;-144.37;100.00
36258;BME280;22294;52.044;4.582;2023-03-15T02:00:36;77638.34;;;-144.37;100.00
36258;BME280;22294;52.044;4.582;2023-03-15T02:03:05;77630.16;;;-144.37;100.00
36258;BME280;22294;52.044;4.582;2023-03-15T02:05:36;77630.16;;;-144.37;100.00
36258;BME280;22294;52.044;4.582;2023-03-15T02:08:05;77632.19;;;-144.37;100.00
36258;BME280;22294;52.044;4.582;2023-03-15T02:10:39;77640.38;;;-144.37;100.00
36258;BME280;22294;52.044;4.582;2023-03-15T02:13:07;77640.38;;;-144.37;100.00
36258;BME280;22294;52.044;4.582;2023-03-15T02:15:32;77638.34;;;-144.37;100.00
36258;BME280;22294;52.044;4.582;2023-03-15T02:17:57;77650.63;;;-144.37;100.00
36258;BME280;22294;52.044;4.582;2023-03-15T02:22:57;77646.53;;;-144.37;100.00
36258;BME280;22294;52.044;4.582;2023-03-15T02:28:03;77652.66;;;-144.37;100.00
36258;BME280;22294;52.044;4.582;2023-03-15T02:30:30;77654.69;;;-144.37;100.00
36258;BME280;22294;52.044;4.582;2023-03-15T02:32:57;77662.88;;;-144.37;100.00
36258;BME280;22294;52.044;4.582;2023-03-15T02:35:26;77660.84;;;-144.37;100.00
36258;BME280;22294;52.044;4.582;2023-03-15T02:37:53;77664.94;;;-144.37;100.00
36258;BME280;22294;52.044;4.582;2023-03-15T02:40:21;77675.16;;;-144.37;100.00
36258;BME280;22294;52.044;4.582;2023-03-15T02:42:50;77685.38;;;-144.37;100.00
36258;BME280;22294;52.044;4.582;2023-03-15T02:45:16;77681.31;;;-144.37;100.00
36258;BME280;22294;52.044;4.582;2023-03-15T02:47:43;77691.53;;;-144.37;100.00
36258;BME280;22294;52.044;4.582;2023-03-15T02:50:09;77701.75;;;-144.37;100.00
36258;BME280;22294;52.044;4.582;2023-03-15T02:52:34;77707.91;;;-144.37;100.00
36258;BME280;22294;52.044;4.582;2023-03-15T02:55:00;77712.00;;;-144.37;100.00
36258;BME280;22294;52.044;4.582;2023-03-15T02:57:27;77712.00;;;-144.37;100.00
36258;BME280;22294;52.044;4.582;2023-03-15T02:59:52;77716.09;;;-144.37;100.00
36258;BME280;22294;52.044;4.582;2023-03-15T03:02:20;77728.34;;;-144.37;100.00
36258;BME280;22294;52.044;4.582;2023-03-15T03:04:45;77736.53;;;-144.37;100.00
36258;BME280;22294;52.044;4.582;2023-03-15T03:07:11;77744.72;;;-144.37;100.00
36258;BME280;22294;52.044;4.582;2023-03-15T03:09:37;77744.72;;;-144.37;100.00
36258;BME280;22294;52.044;4.582;2023-03-15T03:12:02;77742.69;;;-144.37;100.00
36258;BME280;22294;52.044;4.582;2023-03-15T03:14:28;77738.59;;;-144.37;100.00
36258;BME280;22294;52.044;4.582;2023-03-15T03:16:53;77730.41;;;-144.37;100.00
36258;BME280;22294;52.044;4.582;2023-03-15T03:19:19;77726.31;;;-144.37;100.00
36258;BME280;22294;52.044;4.582;2023-03-15T03:21:49;77724.25;;;-144.37;100.00
36258;BME280;22294;52.044;4.582;2023-03-15T03:24:16;77720.19;;;-144.37;100.00
36258;BME280;22294;52.044;4.582;2023-03-15T03:26:41;77709.94;;;-144.37;100.00
36258;BME280;22294;52.044;4.582;2023-03-15T03:29:10;77703.81;;;-144.37;100.00
36258;BME280;22294;52.044;4.582;2023-03-15T03:31:36;77724.25;;;-144.37;100.00
36258;BME280;22294;52.044;4.582;2023-03-15T03:34:01;77718.13;;;-144.37;100.00
36258;BME280;22294;52.044;4.582;2023-03-15T03:36:26;77705.84;;;-144.37;100.00
36258;BME280;22294;52.044;4.582;2023-03-15T03:38:52;77724.25;;;-144.37;100.00
36258;BME280;22294;52.044;4.582;2023-03-15T03:41:18;77728.34;;;-144.37;100.00
36258;BME280;22294;52.044;4.582;2023-03-15T03:43:43;77740.63;;;-144.37;100.00
36258;BME280;22294;52.044;4.582;2023-03-15T03:46:09;77742.69;;;-144.37;100.00
36258;BME280;22294;52.044;4.582;2023-03-15T03:48:34;77746.78;;;-144.37;100.00
36258;BME280;22294;52.044;4.582;2023-03-15T03:51:00;77744.72;;;-144.37;100.00
36258;BME280;22294;52.044;4.582;2023-03-15T03:53:25;77752.91;;;-144.37;100.00
36258;BME280;22294;52.044;4.582;2023-03-15T03:55:50;77757.00;;;-144.37;100.00
36258;BME280;22294;52.044;4.582;2023-03-15T03:58:16;77769.28;;;-144.37;100.00
36258;BME280;22294;52.044;4.582;2023-03-15T04:00:41;77761.09;;;-144.37;100.00
36258;BME280;22294;52.044;4.582;2023-03-15T04:03:07;77777.47;;;-144.37;100.00
36258;BME280;22294;52.044;4.582;2023-03-15T04:05:33;77793.81;;;-144.37;100.00
36258;BME280;22294;52.044;4.582;2023-03-15T04:07:59;77799.97;;;-144.37;100.00
36258;BME280;22294;52.044;4.582;2023-03-15T04:10:24;77795.88;;;-144.37;100.00
36258;BME280;22294;52.044;4.582;2023-03-15T04:12:55;77793.81;;;-144.37;100.00
36258;BME280;22294;52.044;4.582;2023-03-15T04:15:21;77802.00;;;-144.37;100.00
36258;BME280;22294;52.044;4.582;2023-03-15T04:17:52;77799.97;;;-144.37;100.00
36258;BME280;22294;52.044;4.582;2023-03-15T04:20:29;77802.00;;;-144.37;100.00
36258;BME280;22294;52.044;4.582;2023-03-15T04:22:58;77810.19;;;-144.37;100.00
36258;BME280;22294;52.044;4.582;2023-03-15T04:25:24;77814.28;;;-144.37;100.00
36258;BME280;22294;52.044;4.582;2023-03-15T04:27:50;77820.44;;;-144.37;100.00
36258;BME280;22294;52.044;4.582;2023-03-15T04:30:24;77818.38;;;-144.37;100.00
36258;BME280;22294;52.044;4.582;2023-03-15T04:32:51;77814.28;;;-144.37;100.00
36258;BME280;22294;52.044;4.582;2023-03-15T04:35:26;77812.25;;;-144.37;100.00
36258;BME280;22294;52.044;4.582;2023-03-15T04:37:52;77826.56;;;-144.37;100.00
36258;BME280;22294;52.044;4.582;2023-03-15T04:40:17;77826.56;;;-144.37;100.00
36258;BME280;22294;52.044;4.582;2023-03-15T04:42:43;77828.59;;;-144.37;100.00
36258;BME280;22294;52.044;4.582;2023-03-15T04:45:08;77826.56;;;-144.37;100.00
36258;BME280;22294;52.044;4.582;2023-03-15T04:47:34;77822.47;;;-144.37;100.00
36258;BME280;22294;52.044;4.582;2023-03-15T04:49:59;77826.56;;;-144.37;100.00
36258;BME280;22294;52.044;4.582;2023-03-15T04:52:24;77836.78;;;-144.37;100.00
36258;BME280;22294;52.044;4.582;2023-03-15T04:54:50;77836.78;;;-144.37;100.00
36258;BME280;22294;52.044;4.582;2023-03-15T04:57:15;77851.13;;;-144.37;100.00
36258;BME280;22294;52.044;4.582;2023-03-15T04:59:40;77855.22;;;-144.37;100.00
36258;BME280;22294;52.044;4.582;2023-03-15T05:02:06;77865.44;;;-144.37;100.00
36258;BME280;22294;52.044;4.582;2023-03-15T05:04:31;77869.53;;;-144.37;100.00
36258;BME280;22294;52.044;4.582;2023-03-15T05:06:56;77865.44;;;-144.37;100.00
36258;BME280;22294;52.044;4.582;2023-03-15T05:09:22;77867.47;;;-144.37;100.00
36258;BME280;22294;52.044;4.582;2023-03-15T05:11:47;77875.66;;;-144.37;100.00
36258;BME280;22294;52.044;4.582;2023-03-15T05:14:13;77877.72;;;-144.37;100.00
36258;BME280;22294;52.044;4.582;2023-03-15T05:16:38;77887.94;;;-144.37;100.00
36258;BME280;22294;52.044;4.582;2023-03-15T05:19:03;77883.84;;;-144.37;100.00
36258;BME280;22294;52.044;4.582;2023-03-15T05:21:28;77881.81;;;-144.37;100.00
36258;BME280;22294;52.044;4.582;2023-03-15T05:23:54;77885.91;;;-144.37;100.00
36258;BME280;22294;52.044;4.582;2023-03-15T05:26:19;77887.94;;;-144.37;100.00
36258;BME280;22294;52.044;4.582;2023-03-15T05:28:44;77890.00;;;-144.37;100.00
36258;BME280;22294;52.044;4.582;2023-03-15T05:31:10;77883.84;;;-144.37;100.00
36258;BME280;22294;52.044;4.582;2023-03-15T05:33:35;77883.84;;;-144.37;100.00
36258;BME280;22294;52.044;4.582;2023-03-15T05:36:01;77883.84;;;-144.37;100.00
36258;BME280;22294;52.044;4.582;2023-03-15T05:38:27;77867.47;;;-144.37;100.00
36258;BME280;22294;52.044;4.582;2023-03-15T05:40:52;77869.53;;;-144.37;100.00
36258;BME280;22294;52.044;4.582;2023-03-15T05:43:18;77875.66;;;-144.37;100.00
36258;BME280;22294;52.044;4.582;2023-03-15T05:45:44;77879.75;;;-144.37;100.00
36258;BME280;22294;52.044;4.582;2023-03-15T05:48:11;77890.00;;;-144.37;100.00
36258;BME280;22294;52.044;4.582;2023-03-15T05:50:36;77892.03;;;-144.37;100.00
36258;BME280;22294;52.044;4.582;2023-03-15T05:53:01;77896.13;;;-144.37;100.00
36258;BME280;22294;52.044;4.582;2023-03-15T05:55:26;77902.25;;;-144.37;100.00
36258;BME280;22294;52.044;4.582;2023-03-15T05:57:52;77908.41;;;-144.37;100.00
36258;BME280;22294;52.044;4.582;2023-03-15T06:00:17;77914.53;;;-144.37;100.00
36258;BME280;22294;52.044;4.582;2023-03-15T06:02:44;77922.72;;;-144.37;100.00
36258;BME280;22294;52.044;4.582;2023-03-15T06:05:10;77937.06;;;-144.37;100.00
36258;BME280;22294;52.044;4.582;2023-03-15T06:07:35;77949.31;;;-144.37;100.00
36258;BME280;22294;52.044;4.582;2023-03-15T06:10:01;77959.56;;;-144.37;100.00
36258;BME280;22294;52.044;4.582;2023-03-15T06:12:27;77965.69;;;-144.37;100.00
36258;BME280;22294;52.044;4.582;2023-03-15T06:14:52;77975.94;;;-144.37;100.00
36258;BME280;22294;52.044;4.582;2023-03-15T06:17:18;77975.94;;;-144.37;100.00
36258;BME280;22294;52.044;4.582;2023-03-15T06:19:43;77982.06;;;-144.37;100.00
36258;BME280;22294;52.044;4.582;2023-03-15T06:22:08;77980.03;;;-144.37;100.00
36258;BME280;22294;52.044;4.582;2023-03-15T06:24:34;77986.16;;;-144.37;100.00
36258;BME280;22294;52.044;4.582;2023-03-15T06:26:59;77992.28;;;-144.37;100.00
36258;BME280;22294;52.044;4.582;2023-03-15T06:29:24;77992.28;;;-144.37;100.00
36258;BME280;22294;52.044;4.582;2023-03-15T06:31:50;77998.44;;;-144.37;100.00
36258;BME280;22294;52.044;4.582;2023-03-15T06:34:15;77994.34;;;-144.37;100.00
36258;BME280;22294;52.044;4.582;2023-03-15T06:36:41;77994.34;;;-144.37;100.00
36258;BME280;22294;52.044;4.582;2023-03-15T06:39:08;77996.38;;;-144.37;100.00
36258;BME280;22294;52.044;4.582;2023-03-15T06:41:35;77988.19;;;-144.37;100.00
36258;BME280;22294;52.044;4.582;2023-03-15T06:44:00;77975.94;;;-144.37;100.00
36258;BME280;22294;52.044;4.582;2023-03-15T06:46:26;77982.06;;;-144.37;100.00
36258;BME280;22294;52.044;4.582;2023-03-15T06:48:51;77961.59;;;-144.37;100.00
36258;BME280;22294;52.044;4.582;2023-03-15T06:51:16;77959.56;;;-144.37;100.00
36258;BME280;22294;52.044;4.582;2023-03-15T06:53:41;77957.50;;;-144.37;100.00
36258;BME280;22294;52.044;4.582;2023-03-15T06:56:07;77949.31;;;-144.37;100.00
36258;BME280;22294;52.044;4.582;2023-03-15T06:58:32;77947.28;;;-144.37;100.00
36258;BME280;22294;52.044;4.582;2023-03-15T07:00:58;77951.38;;;-144.37;100.00
36258;BME280;22294;52.044;4.582;2023-03-15T07:03:23;77945.22;;;-144.37;100.00
36258;BME280;22294;52.044;4.582;2023-03-15T07:05:49;77951.38;;;-144.37;100.00
36258;BME280;22294;52.044;4.582;2023-03-15T07:08:28;77953.41;;;-144.37;100.00
36258;BME280;22294;52.044;4.582;2023-03-15T07:11:14;77953.41;;;-144.37;100.00
36258;BME280;22294;52.044;4.582;2023-03-15T07:14:02;77955.47;;;-144.37;100.00
36258;BME280;22294;52.044;4.582;2023-03-15T07:16:28;77953.41;;;-144.37;100.00
36258;BME280;22294;52.044;4.582;2023-03-15T07:18:53;77951.38;;;-144.37;100.00
36258;BME280;22294;52.044;4.582;2023-03-15T07:21:20;77943.19;;;-144.37;100.00
36258;BME280;22294;52.044;4.582;2023-03-15T07:23:46;77935.00;;;-144.37;100.00
36258;BME280;22294;52.044;4.582;2023-03-15T07:26:13;77928.88;;;-144.37;100.00
36258;BME280;22294;52.044;4.582;2023-03-15T07:28:38;77912.50;;;-144.37;100.00
36258;BME280;22294;52.044;4.582;2023-03-15T07:31:04;77906.34;;;-144.37;100.00
36258;BME280;22294;52.044;4.582;2023-03-15T07:33:31;77887.94;;;-144.37;100.00
36258;BME280;22294;52.044;4.582;2023-03-15T07:35:57;77885.91;;;-144.37;100.00
36258;BME280;22294;52.044;4.582;2023-03-15T07:38:26;77871.56;;;-144.37;100.00
36258;BME280;22294;52.044;4.582;2023-03-15T07:40:55;77865.44;;;-144.37;100.00
36258;BME280;22294;52.044;4.582;2023-03-15T07:43:21;77865.44;;;-144.37;100.00
36258;BME280;22294;52.044;4.582;2023-03-15T07:45:46;77869.53;;;-144.37;100.00
36258;BME280;22294;52.044;4.582;2023-03-15T07:48:12;77865.44;;;-144.37;100.00
36258;BME280;22294;52.044;4.582;2023-03-15T07:50:38;77863.38;;;-144.37;100.00
36258;BME280;22294;52.044;4.582;2023-03-15T07:53:04;77859.31;;;-144.37;100.00
36258;BME280;22294;52.044;4.582;2023-03-15T07:55:31;77847.03;;;-144.37;100.00
36258;BME280;22294;52.044;4.582;2023-03-15T07:57:57;77836.78;;;-144.37;99.72
36258;BME280;22294;52.044;4.582;2023-03-15T08:00:22;77828.59;;;-144.37;100.00
36258;BME280;22294;52.044;4.582;2023-03-15T08:02:47;77840.88;;;-144.37;100.00
36258;BME280;22294;52.044;4.582;2023-03-15T08:05:13;77832.69;;;-144.37;99.59
36258;BME280;22294;52.044;4.582;2023-03-15T08:07:39;77816.34;;;-144.37;98.83
36258;BME280;22294;52.044;4.582;2023-03-15T08:10:05;77820.44;;;-144.37;97.92
36258;BME280;22294;52.044;4.582;2023-03-15T08:12:31;77814.28;;;-144.37;96.79
36258;BME280;22294;52.044;4.582;2023-03-15T08:14:57;77810.19;;;-144.37;96.71
36258;BME280;22294;52.044;4.582;2023-03-15T08:17:22;77806.09;;;-144.37;97.36
36258;BME280;22294;52.044;4.582;2023-03-15T08:19:48;77802.00;;;-144.37;97.56
36258;BME280;22294;52.044;4.582;2023-03-15T08:22:13;77793.81;;;-144.37;95.85
36258;BME280;22294;52.044;4.582;2023-03-15T08:24:38;77779.50;;;-144.37;94.64
36258;BME280;22294;52.044;4.582;2023-03-15T08:27:04;77777.47;;;-144.37;93.26
36258;BME280;22294;52.044;4.582;2023-03-15T08:29:30;77777.47;;;-144.37;92.30
36258;BME280;22294;52.044;4.582;2023-03-15T08:31:56;77767.22;;;-144.37;93.12
36258;BME280;22294;52.044;4.582;2023-03-15T08:34:21;77757.00;;;-144.37;93.82
36258;BME280;22294;52.044;4.582;2023-03-15T08:36:47;77754.97;;;-144.37;92.40
36258;BME280;22294;52.044;4.582;2023-03-15T08:39:12;77740.63;;;-144.37;92.21
36258;BME280;22294;52.044;4.582;2023-03-15T08:41:39;77736.53;;;-144.37;90.04
36258;BME280;22294;52.044;4.582;2023-03-15T08:44:05;77730.41;;;-144.37;89.41
36258;BME280;22294;52.044;4.582;2023-03-15T08:46:31;77720.19;;;-144.37;88.37
36258;BME280;22294;52.044;4.582;2023-03-15T08:48:57;77726.31;;;-144.37;87.13
36258;BME280;22294;52.044;4.582;2023-03-15T08:51:22;77714.03;;;-144.37;85.32
36258;BME280;22294;52.044;4.582;2023-03-15T08:53:49;77695.63;;;-144.37;88.01
36258;BME280;22294;52.044;4.582;2023-03-15T08:56:16;77689.47;;;-144.37;87.96
36258;BME280;22294;52.044;4.582;2023-03-15T08:58:41;77685.38;;;-144.37;85.89
36258;BME280;22294;52.044;4.582;2023-03-15T09:01:06;77685.38;;;-144.37;84.94
36258;BME280;22294;52.044;4.582;2023-03-15T09:03:32;77677.22;;;-144.37;84.83
36258;BME280;22294;52.044;4.582;2023-03-15T09:05:58;77664.94;;;-144.37;84.04
36258;BME280;22294;52.044;4.582;2023-03-15T09:08:25;77658.78;;;-144.37;85.33
36258;BME280;22294;52.044;4.582;2023-03-15T09:10:55;77654.69;;;-144.37;85.22
36258;BME280;22294;52.044;4.582;2023-03-15T09:13:21;77646.53;;;-144.37;84.79
36258;BME280;22294;52.044;4.582;2023-03-15T09:15:51;77638.34;;;-144.37;84.22
36258;BME280;22294;52.044;4.582;2023-03-15T09:18:18;77630.16;;;-144.37;83.31
36258;BME280;22294;52.044;4.582;2023-03-15T09:20:44;77628.09;;;-144.37;83.73
36258;BME280;22294;52.044;4.582;2023-03-15T09:23:09;77613.78;;;-144.37;81.42
36258;BME280;22294;52.044;4.582;2023-03-15T09:25:35;77605.59;;;-144.37;81.63
36258;BME280;22294;52.044;4.582;2023-03-15T09:28:04;77599.47;;;-144.37;81.57
36258;BME280;22294;52.044;4.582;2023-03-15T09:30:30;77591.28;;;-144.37;78.95
36258;BME280;22294;52.044;4.582;2023-03-15T09:32:55;77587.19;;;-144.37;77.71
36258;BME280;22294;52.044;4.582;2023-03-15T09:35:21;77591.28;;;-144.37;74.82
36258;BME280;22294;52.044;4.582;2023-03-15T09:37:48;77593.31;;;-144.37;74.66
36258;BME280;22294;52.044;4.582;2023-03-15T09:40:26;77574.91;;;-144.37;76.39
36258;BME280;22294;52.044;4.582;2023-03-15T09:46:17;77554.47;;;-144.37;74.93
36258;BME280;22294;52.044;4.582;2023-03-15T09:51:37;77536.03;;;-144.37;70.78
36258;BME280;22294;52.044;4.582;2023-03-15T09:54:09;77521.72;;;-144.37;68.75
36258;BME280;22294;52.044;4.582;2023-03-15T09:56:40;77513.53;;;-144.37;69.17
36258;BME280;22294;52.044;4.582;2023-03-15T09:59:10;77519.66;;;-144.37;65.51
36258;BME280;22294;52.044;4.582;2023-03-15T10:01:40;77513.53;;;-144.37;63.92
36258;BME280;22294;52.044;4.582;2023-03-15T10:06:58;77513.53;;;-144.37;59.58
36258;BME280;22294;52.044;4.582;2023-03-15T10:09:27;77503.31;;;-144.37;63.04
36258;BME280;22294;52.044;4.582;2023-03-15T10:20:28;77478.75;;;-144.37;60.30
36258;BME280;22294;52.044;4.582;2023-03-15T10:23:10;77480.81;;;-144.37;57.35
36258;BME280;22294;52.044;4.582;2023-03-15T10:25:40;77470.56;;;-144.37;57.96
36258;BME280;22294;52.044;4.582;2023-03-15T10:30:34;77460.34;;;-144.37;56.03
36258;BME280;22294;52.044;4.582;2023-03-15T10:33:18;77466.47;;;-144.37;54.93
36258;BME280;22294;52.044;4.582;2023-03-15T10:35:47;77464.44;;;-144.37;55.72
36258;BME280;22294;52.044;4.582;2023-03-15T10:38:21;77456.25;;;-144.37;57.11
36258;BME280;22294;52.044;4.582;2023-03-15T10:40:52;77450.13;;;-144.37;56.36
36258;BME280;22294;52.044;4.582;2023-03-15T10:43:21;77441.94;;;-144.37;57.08
36258;BME280;22294;52.044;4.582;2023-03-15T10:46:02;77431.69;;;-144.37;54.09
36258;BME280;22294;52.044;4.582;2023-03-15T10:48:30;77439.88;;;-144.37;53.33
36258;BME280;22294;52.044;4.582;2023-03-15T10:51:13;77423.53;;;-144.37;55.53
36258;BME280;22294;52.044;4.582;2023-03-15T10:53:53;77401.00;;;-144.37;55.01
36258;BME280;22294;52.044;4.582;2023-03-15T10:56:24;77407.16;;;-144.37;55.59
36258;BME280;22294;52.044;4.582;2023-03-15T10:58:52;77386.69;;;-144.37;56.27
36258;BME280;22294;52.044;4.582;2023-03-15T11:01:24;77388.75;;;-144.37;57.01
36258;BME280;22294;52.044;4.582;2023-03-15T11:04:11;77382.59;;;-144.37;56.59
36258;BME280;22294;52.044;4.582;2023-03-15T11:09:15;77392.84;;;-144.37;55.50
36258;BME280;22294;52.044;4.582;2023-03-15T11:11:58;77392.84;;;-144.37;55.90
36258;BME280;22294;52.044;4.582;2023-03-15T11:14:47;77388.75;;;-144.37;56.06
36258;BME280;22294;52.044;4.582;2023-03-15T11:17:22;77376.47;;;-144.37;55.65
36258;BME280;22294;52.044;4.582;2023-03-15T11:20:00;77366.25;;;-144.37;56.34
36258;BME280;22294;52.044;4.582;2023-03-15T11:22:40;77353.97;;;-144.37;54.98
36258;BME280;22294;52.044;4.582;2023-03-15T11:25:13;77339.66;;;-144.37;56.37
36258;BME280;22294;52.044;4.582;2023-03-15T11:27:40;77339.66;;;-144.37;54.45
36258;BME280;22294;52.044;4.582;2023-03-15T11:30:12;77341.69;;;-144.37;54.87
36258;BME280;22294;52.044;4.582;2023-03-15T11:32:38;77331.47;;;-144.37;53.94
36258;BME280;22294;52.044;4.582;2023-03-15T11:35:09;77333.50;;;-144.37;52.81
36258;BME280;22294;52.044;4.582;2023-03-15T11:37:54;77333.50;;;-144.37;52.94
36258;BME280;22294;52.044;4.582;2023-03-15T11:40:35;77319.19;;;-144.37;54.02
36258;BME280;22294;52.044;4.582;2023-03-15T11:43:14;77315.09;;;-144.37;54.17
36258;BME280;22294;52.044;4.582;2023-03-15T11:45:59;77302.81;;;-144.37;54.82
36258;BME280;22294;52.044;4.582;2023-03-15T11:48:35;77313.03;;;-144.37;54.76
36258;BME280;22294;52.044;4.582;2023-03-15T11:51:07;77306.91;;;-144.37;53.43
36258;BME280;22294;52.044;4.582;2023-03-15T11:53:37;77292.59;;;-144.37;53.88
36258;BME280;22294;52.044;4.582;2023-03-15T11:56:26;77292.59;;;-144.37;52.90
36258;BME280;22294;52.044;4.582;2023-03-15T11:59:10;77290.53;;;-144.37;53.54
36258;BME280;22294;52.044;4.582;2023-03-15T12:01:41;77292.59;;;-144.37;52.23
36258;BME280;22294;52.044;4.582;2023-03-15T12:07:00;77298.72;;;-144.37;52.35
36258;BME280;22294;52.044;4.582;2023-03-15T12:12:03;77286.44;;;-144.37;50.58
36258;BME280;22294;52.044;4.582;2023-03-15T12:14:35;77270.09;;;-144.37;50.91
36258;BME280;22294;52.044;4.582;2023-03-15T12:23:12;77272.13;;;-144.37;50.40
36258;BME280;22294;52.044;4.582;2023-03-15T12:28:38;77266.00;;;-144.37;48.71
36258;BME280;22294;52.044;4.582;2023-03-15T12:31:10;77255.78;;;-144.37;49.16
36258;BME280;22294;52.044;4.582;2023-03-15T12:34:10;77255.78;;;-144.37;47.69
36258;BME280;22294;52.044;4.582;2023-03-15T12:36:40;77266.00;;;-144.37;49.21
36258;BME280;22294;52.044;4.582;2023-03-15T12:41:48;77268.03;;;-144.37;48.28
36258;BME280;22294;52.044;4.582;2023-03-15T12:46:59;77259.84;;;-144.37;48.99
36258;BME280;22294;52.044;4.582;2023-03-15T12:54:36;77214.84;;;-144.37;49.39
36258;BME280;22294;52.044;4.582;2023-03-15T12:57:04;77225.09;;;-144.37;48.93
36258;BME280;22294;52.044;4.582;2023-03-15T13:02:35;77239.41;;;-144.37;47.81
36258;BME280;22294;52.044;4.582;2023-03-15T13:10:17;77225.09;;;-144.37;49.01
36258;BME280;22294;52.044;4.582;2023-03-15T13:16:00;77218.94;;;-144.37;48.26
36258;BME280;22294;52.044;4.582;2023-03-15T13:18:33;77212.81;;;-144.37;48.25
36258;BME280;22294;52.044;4.582;2023-03-15T13:23:49;77208.72;;;-144.37;47.13
36258;BME280;22294;52.044;4.582;2023-03-15T13:26:45;77204.63;;;-144.37;47.18
36258;BME280;22294;52.044;4.582;2023-03-15T13:29:09;77202.56;;;-144.37;47.71
36258;BME280;22294;52.044;4.582;2023-03-15T13:31:36;77210.75;;;-144.37;47.31
36258;BME280;22294;52.044;4.582;2023-03-15T13:34:34;77210.75;;;-144.37;46.34
36258;BME280;22294;52.044;4.582;2023-03-15T13:36:59;77202.56;;;-144.37;46.69
36258;BME280;22294;52.044;4.582;2023-03-15T13:39:32;77204.63;;;-144.37;46.61
36258;BME280;22294;52.044;4.582;2023-03-15T13:42:03;77210.75;;;-144.37;47.98
36258;BME280;22294;52.044;4.582;2023-03-15T13:44:29;77200.53;;;-144.37;47.44
36258;BME280;22294;52.044;4.582;2023-03-15T13:46:55;77204.63;;;-144.37;47.01
36258;BME280;22294;52.044;4.582;2023-03-15T13:49:21;77206.66;;;-144.37;44.93